createdAt,value
2023-01-30T00:01:15.926Z,27.77
2023-01-30T00:06:18.857Z,27.48
2023-01-30T00:11:25.961Z,24.10
2023-01-30T00:16:28.546Z,22.17
2023-01-30T00:21:31.497Z,21.73
2023-01-30T00:26:35.847Z,20.88
2023-01-30T00:31:41.012Z,23.75
2023-01-30T00:36:43.832Z,18.45
2023-01-30T00:41:48.510Z,19.13
2023-01-30T00:46:54.286Z,21.73
2023-01-30T00:51:56.992Z,15.32
2023-01-30T00:57:01.402Z,16.60
2023-01-30T01:02:04.073Z,16.05
2023-01-30T01:07:08.833Z,12.07
2023-01-30T01:12:16.099Z,16.98
2023-01-30T01:17:21.538Z,13.70
2023-01-30T01:22:24.564Z,13.60
2023-01-30T01:27:34.670Z,12.93
2023-01-30T01:32:43.524Z,13.48
2023-01-30T01:37:59.739Z,11.32
2023-01-30T01:43:20.634Z,11.73
2023-01-30T01:48:33.307Z,10.70
2023-01-30T01:53:44.127Z,12.23
2023-01-30T01:58:55.605Z,10.77
2023-01-30T02:04:11.256Z,11.63
2023-01-30T02:09:18.769Z,9.05
2023-01-30T02:14:38.205Z,6.93
2023-01-30T02:19:49.668Z,7.47
2023-01-30T02:25:29.746Z,5.22
2023-01-30T02:31:07.159Z,3.35
2023-01-30T02:36:23.508Z,5.72
2023-01-30T02:41:38.111Z,5.33
2023-01-30T02:46:51.826Z,7.85
2023-01-30T02:51:58.141Z,9.90
2023-01-30T02:57:03.711Z,10.18
2023-01-30T03:02:40.274Z,8.52
2023-01-30T03:07:49.975Z,9.80
2023-01-30T03:12:59.638Z,11.23
2023-01-30T03:18:07.273Z,8.07
2023-01-30T03:23:10.223Z,7.60
2023-01-30T03:28:20.989Z,7.93
2023-01-30T03:33:29.142Z,7.60
2023-01-30T03:38:33.074Z,7.40
2023-01-30T03:43:35.988Z,8.07
2023-01-30T03:48:43.573Z,9.18
2023-01-30T03:53:49.025Z,6.97
2023-01-30T03:58:51.836Z,6.05
2023-01-30T04:04:02.499Z,7.82
2023-01-30T04:09:05.954Z,12.50
2023-01-30T04:14:08.532Z,13.18
2023-01-30T04:19:14.276Z,14.10
2023-01-30T04:24:16.871Z,17.95
2023-01-30T04:29:20.131Z,20.17
2023-01-30T04:34:24.640Z,29.92
2023-01-30T04:39:27.507Z,22.70
2023-01-30T04:44:30.176Z,25.13
2023-01-30T04:49:42.068Z,24.42
2023-01-30T04:54:48.045Z,29.40
2023-01-30T04:59:50.541Z,26.33
2023-01-30T05:04:57.552Z,29.90
2023-01-30T05:10:00.206Z,36.53
2023-01-30T05:15:03.002Z,30.05
2023-01-30T05:20:10.672Z,33.00
2023-01-30T05:25:15.950Z,34.70
2023-01-30T05:30:19.490Z,31.90
2023-01-30T05:35:26.600Z,25.88
2023-01-30T05:40:29.525Z,29.25
2023-01-30T05:45:34.198Z,32.63
2023-01-30T05:50:41.256Z,31.83
2023-01-30T05:55:47.391Z,29.08
2023-01-30T06:00:50.221Z,25.83
2023-01-30T06:05:54.979Z,39.75
2023-01-30T06:11:01.034Z,34.40
2023-01-30T06:16:10.415Z,28.08
2023-01-30T06:21:16.091Z,29.70
2023-01-30T06:26:18.842Z,21.80
2023-01-30T06:31:22.123Z,26.77
2023-01-30T06:36:26.459Z,20.80
2023-01-30T06:41:32.945Z,29.73
2023-01-30T06:46:38.838Z,24.63
2023-01-30T06:51:45.377Z,29.05
2023-01-30T06:56:50.743Z,29.37
2023-01-30T07:01:53.862Z,30.90
2023-01-30T07:06:58.317Z,29.13
2023-01-30T07:12:03.499Z,21.20
2023-01-30T07:17:06.511Z,23.45
2023-01-30T07:22:11.017Z,32.08
2023-01-30T07:27:14.295Z,25.17
2023-01-30T07:32:19.195Z,35.80
2023-01-30T07:37:23.404Z,21.98
2023-01-30T07:42:26.073Z,27.50
2023-01-30T07:47:28.783Z,25.40
2023-01-30T07:52:36.536Z,24.00
2023-01-30T07:57:39.216Z,22.60
2023-01-30T08:02:42.565Z,28.33
2023-01-30T08:07:46.789Z,27.08
2023-01-30T08:12:51.613Z,27.48
2023-01-30T08:17:56.376Z,27.08
2023-01-30T08:23:01.300Z,30.00
2023-01-30T08:28:05.215Z,27.70
2023-01-30T08:33:07.933Z,28.83
2023-01-30T08:38:13.445Z,28.45
2023-01-30T08:43:17.220Z,22.85
2023-01-30T08:48:21.309Z,27.75
2023-01-30T08:53:26.686Z,33.15
2023-01-30T08:58:29.556Z,28.20
2023-01-30T09:03:33.570Z,30.25
2023-01-30T09:08:37.804Z,27.42
2023-01-30T09:13:43.664Z,35.45
2023-01-30T09:18:46.283Z,28.13
2023-01-30T09:23:53.295Z,22.20
2023-01-30T09:28:55.683Z,21.40
2023-01-30T09:33:58.199Z,29.05
2023-01-30T09:39:04.678Z,27.55
2023-01-30T09:44:23.582Z,35.27
2023-01-30T09:49:36.496Z,30.65
2023-01-30T09:54:44.383Z,38.17
2023-01-30T09:59:59.130Z,31.60
2023-01-30T10:05:04.542Z,22.92
2023-01-30T10:10:18.552Z,28.33
2023-01-30T10:15:46.008Z,17.13
2023-01-30T10:21:01.586Z,17.10
2023-01-30T10:26:11.980Z,20.48
2023-01-30T10:31:16.900Z,19.58
2023-01-30T10:36:25.575Z,26.38
2023-01-30T10:41:36.521Z,24.08
2023-01-30T10:47:08.972Z,22.40
2023-01-30T10:58:25.913Z,23.77
2023-01-30T11:03:36.148Z,25.13
2023-01-30T11:08:38.929Z,24.58
2023-01-30T11:13:47.756Z,19.30
2023-01-30T11:19:18.896Z,21.50
2023-01-30T11:24:16.717Z,25.75
2023-01-30T11:29:32.955Z,25.85
2023-01-30T11:34:39.026Z,21.05
2023-01-30T11:39:50.978Z,30.02
2023-01-30T11:45:17.231Z,17.13
2023-01-30T11:50:32.676Z,26.83
2023-01-30T11:55:39.099Z,13.15
2023-01-30T12:00:48.642Z,12.00
2023-01-30T12:05:51.463Z,20.88
2023-01-30T12:10:58.583Z,16.13
2023-01-30T12:21:21.907Z,9.77
2023-01-30T12:26:30.011Z,14.02
2023-01-30T12:31:39.618Z,12.40
2023-01-30T12:36:50.487Z,10.75
2023-01-30T12:42:06.914Z,16.55
2023-01-30T12:47:31.405Z,14.97
2023-01-30T12:52:56.580Z,22.10
2023-01-30T12:58:06.215Z,16.52
2023-01-30T13:03:27.451Z,23.80
2023-01-30T13:08:51.464Z,24.13
2023-01-30T13:13:59.415Z,21.52
2023-01-30T13:19:13.110Z,26.08
2023-01-30T13:24:25.331Z,28.35
2023-01-30T13:29:33.446Z,22.45
2023-01-30T13:34:41.221Z,20.67
2023-01-30T13:39:52.609Z,17.48
2023-01-30T13:44:56.383Z,19.17
2023-01-30T13:50:23.998Z,22.15
2023-01-30T13:55:33.390Z,25.75
2023-01-30T14:00:36.417Z,22.48
2023-01-30T14:06:09.773Z,30.90
2023-01-30T14:11:41.899Z,24.10
2023-01-30T14:16:49.629Z,18.33
2023-01-30T14:22:00.841Z,18.83
2023-01-30T14:27:22.103Z,21.83
2023-01-30T14:32:53.839Z,19.67
2023-01-30T14:38:19.616Z,19.10
2023-01-30T14:43:47.116Z,14.82
2023-01-30T14:48:54.923Z,18.77
2023-01-30T14:54:02.536Z,17.35
2023-01-30T14:59:10.265Z,16.27
2023-01-30T15:04:16.184Z,18.33
2023-01-30T15:09:24.891Z,23.55
2023-01-30T15:14:31.285Z,14.65
2023-01-30T15:20:14.521Z,19.20
2023-01-30T15:25:30.368Z,16.60
2023-01-30T15:30:56.038Z,21.13
2023-01-30T15:35:58.960Z,15.90
2023-01-30T15:41:05.266Z,14.63
2023-01-30T15:46:15.048Z,20.03
2023-01-30T15:51:23.282Z,18.40
2023-01-30T15:56:30.081Z,16.02
2023-01-30T16:01:32.993Z,13.07
2023-01-30T16:06:37.314Z,18.20
2023-01-30T16:11:43.223Z,14.70
2023-01-30T16:16:51.873Z,21.60
2023-01-30T16:21:57.240Z,26.58
2023-01-30T16:27:05.445Z,14.38
2023-01-30T16:32:14.406Z,31.67
2023-01-30T16:37:26.942Z,24.38
2023-01-30T16:42:31.195Z,22.35
2023-01-30T16:47:33.975Z,25.75
2023-01-30T16:52:38.831Z,23.60
2023-01-30T16:57:46.011Z,17.08
2023-01-30T17:07:58.459Z,25.67
2023-01-30T17:13:04.595Z,25.70
2023-01-30T17:18:08.417Z,23.88
2023-01-30T17:23:18.889Z,34.28
2023-01-30T17:28:23.102Z,36.10
2023-01-30T17:33:25.536Z,26.98
2023-01-30T17:38:29.980Z,22.15
2023-01-30T17:43:34.313Z,21.98
2023-01-30T17:48:36.680Z,20.45
2023-01-30T17:53:39.441Z,30.83
2023-01-30T17:58:43.725Z,20.58
2023-01-30T18:03:46.387Z,20.80
2023-01-30T18:08:52.340Z,19.17
2023-01-30T18:13:56.802Z,13.80
2023-01-30T18:19:00.680Z,17.20
2023-01-30T18:24:03.373Z,17.25
2023-01-30T18:29:07.555Z,17.13
2023-01-30T18:34:11.357Z,22.80
2023-01-30T18:39:13.999Z,22.80
2023-01-30T18:44:18.418Z,26.10
2023-01-30T18:49:21.159Z,16.73
2023-01-30T18:54:23.624Z,23.35
2023-01-30T18:59:27.741Z,21.38
2023-01-30T19:04:30.565Z,22.67
2023-01-30T19:09:35.440Z,19.95
2023-01-30T19:14:39.681Z,19.70
2023-01-30T19:19:42.308Z,27.42
2023-01-30T19:24:45.643Z,16.33
2023-01-30T19:29:49.959Z,19.25
2023-01-30T19:34:52.464Z,20.13
2023-01-30T19:39:55.043Z,20.23
2023-01-30T19:45:13.389Z,22.35
2023-01-30T19:50:17.074Z,22.58
2023-01-30T19:55:20.073Z,20.42
2023-01-30T20:00:27.256Z,19.27
2023-01-30T20:10:32.140Z,21.27
2023-01-30T20:15:39.775Z,19.83
2023-01-30T20:20:43.615Z,14.43
2023-01-30T20:25:46.276Z,15.80
2023-01-30T20:30:50.328Z,18.92
2023-01-30T20:35:55.444Z,18.88
2023-01-30T20:41:02.533Z,12.52
2023-01-30T20:46:08.965Z,18.30
2023-01-30T20:51:13.665Z,19.35
2023-01-30T20:56:16.480Z,16.30
2023-01-30T21:01:22.877Z,19.20
2023-01-30T21:06:42.854Z,27.17
2023-01-30T21:11:49.498Z,18.63
2023-01-30T21:16:56.059Z,24.05
2023-01-30T21:21:58.563Z,16.40
2023-01-30T21:27:03.969Z,25.83
2023-01-30T21:32:08.429Z,18.60
2023-01-30T21:37:14.724Z,16.25
2023-01-30T21:42:17.818Z,22.02
2023-01-30T21:47:35.380Z,15.43
2023-01-30T21:52:40.716Z,15.43
2023-01-30T21:57:44.283Z,22.73
2023-01-30T22:02:51.925Z,15.20
2023-01-30T22:07:55.552Z,15.52
2023-01-30T22:13:02.381Z,13.35
2023-01-30T22:18:11.913Z,18.45
2023-01-30T22:23:15.175Z,11.68
2023-01-30T22:28:18.215Z,15.70
2023-01-30T22:33:24.763Z,19.08
2023-01-30T22:38:30.202Z,18.05
2023-01-30T22:43:33.659Z,19.63
2023-01-30T22:48:39.884Z,16.88
2023-01-30T22:53:51.013Z,19.20
2023-01-30T22:58:54.846Z,16.23
2023-01-30T23:04:01.049Z,13.13
2023-01-30T23:09:07.245Z,22.27
2023-01-30T23:14:12.094Z,20.00
2023-01-30T23:19:18.743Z,14.13
2023-01-30T23:24:30.776Z,17.52
2023-01-30T23:29:33.699Z,16.70
2023-01-30T23:34:42.337Z,15.45
2023-01-30T23:39:46.269Z,13.30
2023-01-30T23:44:54.008Z,21.05
2023-01-30T23:49:58.479Z,18.23
2023-01-30T23:55:03.204Z,19.95
